sensor_id;sensor_type;location;lat;lon;timestamp;pressure;altitude;pressure_sealevel;temperature;humidity
79242;BME280;68670;48.720;9.118;2023-06-04T00:01:21;96818.34;;;14.73;59.72
79242;BME280;68670;48.720;9.118;2023-06-04T00:03:47;96823.81;;;14.63;60.25
79242;BME280;68670;48.720;9.118;2023-06-04T00:06:12;96810.06;;;14.68;59.86
79242;BME280;68670;48.720;9.118;2023-06-04T00:08:40;96812.53;;;14.70;59.50
79242;BME280;68670;48.720;9.118;2023-06-04T00:11:07;96817.19;;;14.54;60.51
79242;BME280;68670;48.720;9.118;2023-06-04T00:13:32;96810.59;;;14.65;59.63
79242;BME280;68670;48.720;9.118;2023-06-04T00:16:00;96811.13;;;14.52;60.41
79242;BME280;68670;48.720;9.118;2023-06-04T00:18:25;96807.22;;;14.43;60.00
79242;BME280;68670;48.720;9.118;2023-06-04T00:20:53;96801.66;;;14.38;60.80
79242;BME280;68670;48.720;9.118;2023-06-04T00:23:21;96805.47;;;14.32;61.19
79242;BME280;68670;48.720;9.118;2023-06-04T00:25:48;96808.78;;;14.34;63.67
79242;BME280;68670;48.720;9.118;2023-06-04T00:28:13;96806.56;;;14.26;64.05
79242;BME280;68670;48.720;9.118;2023-06-04T00:30:41;96794.69;;;14.15;61.94
79242;BME280;68670;48.720;9.118;2023-06-04T00:33:06;96806.56;;;14.26;61.92
79242;BME280;68670;48.720;9.118;2023-06-04T00:35:32;96804.59;;;14.16;62.06
79242;BME280;68670;48.720;9.118;2023-06-04T00:37:58;96806.22;;;14.12;61.17
79242;BME280;68670;48.720;9.118;2023-06-04T00:40:23;96806.28;;;14.22;61.04
79242;BME280;68670;48.720;9.118;2023-06-04T00:42:51;96810.41;;;14.20;61.25
79242;BME280;68670;48.720;9.118;2023-06-04T00:45:20;96811.47;;;14.13;61.32
79242;BME280;68670;48.720;9.118;2023-06-04T00:47:46;96814.53;;;14.17;61.21
79242;BME280;68670;48.720;9.118;2023-06-04T00:50:11;96817.78;;;14.09;61.33
79242;BME280;68670;48.720;9.118;2023-06-04T00:52:39;96826.31;;;14.07;62.66
79242;BME280;68670;48.720;9.118;2023-06-04T00:55:05;96812.81;;;14.06;62.41
79242;BME280;68670;48.720;9.118;2023-06-04T00:57:31;96824.59;;;13.96;62.12
79242;BME280;68670;48.720;9.118;2023-06-04T00:59:56;96827.31;;;13.91;62.04
79242;BME280;68670;48.720;9.118;2023-06-04T01:02:23;96824.31;;;13.93;62.65
79242;BME280;68670;48.720;9.118;2023-06-04T01:04:54;96819.13;;;14.06;61.94
79242;BME280;68670;48.720;9.118;2023-06-04T01:07:26;96829.56;;;13.94;62.99
79242;BME280;68670;48.720;9.118;2023-06-04T01:09:53;96832.53;;;13.88;62.90
79242;BME280;68670;48.720;9.118;2023-06-04T01:12:18;96824.47;;;13.76;63.02
79242;BME280;68670;48.720;9.118;2023-06-04T01:14:43;96826.66;;;13.74;62.73
79242;BME280;68670;48.720;9.118;2023-06-04T01:17:25;96820.00;;;13.70;63.47
79242;BME280;68670;48.720;9.118;2023-06-04T01:20:07;96815.84;;;13.62;63.09
79242;BME280;68670;48.720;9.118;2023-06-04T01:25:28;96824.94;;;13.68;63.74
79242;BME280;68670;48.720;9.118;2023-06-04T01:27:57;96829.81;;;13.56;63.69
79242;BME280;68670;48.720;9.118;2023-06-04T01:30:34;96823.19;;;13.52;63.97
79242;BME280;68670;48.720;9.118;2023-06-04T01:33:00;96825.47;;;13.60;63.82
79242;BME280;68670;48.720;9.118;2023-06-04T01:35:29;96825.47;;;13.60;65.30
79242;BME280;68670;48.720;9.118;2023-06-04T01:37:58;96823.19;;;13.52;65.15
79242;BME280;68670;48.720;9.118;2023-06-04T01:40:25;96821.78;;;13.49;65.75
79242;BME280;68670;48.720;9.118;2023-06-04T01:42:51;96822.13;;;13.58;65.48
79242;BME280;68670;48.720;9.118;2023-06-04T01:45:17;96823.84;;;13.64;64.86
79242;BME280;68670;48.720;9.118;2023-06-04T01:47:45;96832.00;;;13.54;65.34
79242;BME280;68670;48.720;9.118;2023-06-04T01:50:12;96830.88;;;13.50;65.91
79242;BME280;68670;48.720;9.118;2023-06-04T01:52:39;96829.31;;;13.59;64.54
79242;BME280;68670;48.720;9.118;2023-06-04T01:55:08;96828.16;;;13.55;64.31
79242;BME280;68670;48.720;9.118;2023-06-04T01:57:35;96827.81;;;13.46;63.82
79242;BME280;68670;48.720;9.118;2023-06-04T02:00:01;96827.56;;;13.48;63.44
79242;BME280;68670;48.720;9.118;2023-06-04T02:02:27;96829.00;;;13.55;63.29
79242;BME280;68670;48.720;9.118;2023-06-04T02:04:52;96821.75;;;13.44;63.52
79242;BME280;68670;48.720;9.118;2023-06-04T02:07:21;96825.28;;;13.39;63.31
79242;BME280;68670;48.720;9.118;2023-06-04T02:09:49;96824.66;;;13.27;63.44
79242;BME280;68670;48.720;9.118;2023-06-04T02:12:19;96830.09;;;13.22;63.88
79242;BME280;68670;48.720;9.118;2023-06-04T02:14:44;96816.78;;;13.14;63.85
79242;BME280;68670;48.720;9.118;2023-06-04T02:17:12;96825.13;;;13.19;63.93
79242;BME280;68670;48.720;9.118;2023-06-04T02:19:42;96825.13;;;13.19;64.57
79242;BME280;68670;48.720;9.118;2023-06-04T02:22:13;96827.78;;;13.14;64.01
79242;BME280;68670;48.720;9.118;2023-06-04T02:24:41;96826.66;;;13.10;64.24
79242;BME280;68670;48.720;9.118;2023-06-04T02:27:11;96830.47;;;13.09;65.20
79242;BME280;68670;48.720;9.118;2023-06-04T02:29:37;96823.84;;;13.05;64.28
79242;BME280;68670;48.720;9.118;2023-06-04T02:32:06;96829.34;;;13.05;64.46
79242;BME280;68670;48.720;9.118;2023-06-04T02:34:31;96833.94;;;12.94;64.51
79242;BME280;68670;48.720;9.118;2023-06-04T02:36:57;96836.44;;;12.96;64.69
79242;BME280;68670;48.720;9.118;2023-06-04T02:39:23;96833.16;;;12.99;64.76
79242;BME280;68670;48.720;9.118;2023-06-04T02:41:48;96837.25;;;12.96;65.11
79242;BME280;68670;48.720;9.118;2023-06-04T02:44:14;96840.84;;;12.97;64.70
79242;BME280;68670;48.720;9.118;2023-06-04T02:46:41;96834.84;;;13.05;64.07
79242;BME280;68670;48.720;9.118;2023-06-04T02:49:07;96838.47;;;12.84;64.53
79242;BME280;68670;48.720;9.118;2023-06-04T02:51:34;96832.09;;;12.78;64.62
79242;BME280;68670;48.720;9.118;2023-06-04T02:54:00;96838.44;;;12.78;64.60
79242;BME280;68670;48.720;9.118;2023-06-04T02:56:27;96836.81;;;12.83;65.09
79242;BME280;68670;48.720;9.118;2023-06-04T02:58:54;96831.84;;;12.79;65.43
79242;BME280;68670;48.720;9.118;2023-06-04T03:01:21;96832.88;;;12.73;65.21
79242;BME280;68670;48.720;9.118;2023-06-04T03:03:47;96836.50;;;12.79;65.06
79242;BME280;68670;48.720;9.118;2023-06-04T03:06:16;96832.47;;;12.87;64.98
79242;BME280;68670;48.720;9.118;2023-06-04T03:08:45;96841.44;;;12.77;65.08
79242;BME280;68670;48.720;9.118;2023-06-04T03:11:11;96835.34;;;12.75;65.56
79242;BME280;68670;48.720;9.118;2023-06-04T03:13:38;96846.00;;;12.66;65.26
79242;BME280;68670;48.720;9.118;2023-06-04T03:16:03;96833.69;;;12.74;65.00
79242;BME280;68670;48.720;9.118;2023-06-04T03:18:34;96831.13;;;12.62;64.93
79242;BME280;68670;48.720;9.118;2023-06-04T03:21:01;96837.19;;;12.64;65.29
79242;BME280;68670;48.720;9.118;2023-06-04T03:23:29;96840.38;;;12.56;65.18
79242;BME280;68670;48.720;9.118;2023-06-04T03:25:54;96844.16;;;12.50;65.27
79242;BME280;68670;48.720;9.118;2023-06-04T03:28:22;96840.13;;;12.36;66.39
79242;BME280;68670;48.720;9.118;2023-06-04T03:30:50;96849.72;;;12.33;65.86
79242;BME280;68670;48.720;9.118;2023-06-04T03:33:18;96851.38;;;12.34;66.09
79242;BME280;68670;48.720;9.118;2023-06-04T03:35:43;96858.06;;;12.43;65.55
79242;BME280;68670;48.720;9.118;2023-06-04T03:38:08;96858.84;;;12.39;65.61
79242;BME280;68670;48.720;9.118;2023-06-04T03:40:36;96861.53;;;12.34;65.50
79242;BME280;68670;48.720;9.118;2023-06-04T03:43:04;96855.00;;;12.40;65.26
79242;BME280;68670;48.720;9.118;2023-06-04T03:45:30;96859.47;;;12.46;64.67
79242;BME280;68670;48.720;9.118;2023-06-04T03:47:55;96853.47;;;12.49;64.61
79242;BME280;68670;48.720;9.118;2023-06-04T03:50:20;96870.34;;;12.36;64.91
79242;BME280;68670;48.720;9.118;2023-06-04T03:52:47;96861.53;;;12.34;64.56
79242;BME280;68670;48.720;9.118;2023-06-04T03:55:15;96870.53;;;12.29;64.55
79242;BME280;68670;48.720;9.118;2023-06-04T03:57:42;96866.22;;;12.33;65.83
79242;BME280;68670;48.720;9.118;2023-06-04T04:00:09;96866.47;;;12.32;65.86
79242;BME280;68670;48.720;9.118;2023-06-04T04:02:39;96868.16;;;12.38;64.33
79242;BME280;68670;48.720;9.118;2023-06-04T04:05:05;96857.66;;;12.30;65.16
79242;BME280;68670;48.720;9.118;2023-06-04T04:07:30;96866.50;;;12.37;66.81
79242;BME280;68670;48.720;9.118;2023-06-04T04:09:56;96857.19;;;12.38;69.74
79242;BME280;68670;48.720;9.118;2023-06-04T04:12:21;96862.88;;;12.31;67.92
79242;BME280;68670;48.720;9.118;2023-06-04T04:14:47;96860.38;;;12.30;65.75
79242;BME280;68670;48.720;9.118;2023-06-04T04:17:14;96866.22;;;12.33;66.62
79242;BME280;68670;48.720;9.118;2023-06-04T04:19:44;96869.00;;;12.38;67.15
79242;BME280;68670;48.720;9.118;2023-06-04T04:22:14;96868.22;;;12.43;66.71
79242;BME280;68670;48.720;9.118;2023-06-04T04:24:43;96871.50;;;12.40;67.71
79242;BME280;68670;48.720;9.118;2023-06-04T04:27:08;96866.63;;;12.47;67.27
79242;BME280;68670;48.720;9.118;2023-06-04T04:29:38;96870.47;;;12.46;66.75
79242;BME280;68670;48.720;9.118;2023-06-04T04:32:06;96871.13;;;12.53;66.14
79242;BME280;68670;48.720;9.118;2023-06-04T04:34:36;96873.88;;;12.53;67.00
79242;BME280;68670;48.720;9.118;2023-06-04T04:37:05;96878.91;;;12.61;65.99
79242;BME280;68670;48.720;9.118;2023-06-04T04:39:34;96885.31;;;12.67;67.55
79242;BME280;68670;48.720;9.118;2023-06-04T04:42:03;96884.81;;;12.75;66.83
79242;BME280;68670;48.720;9.118;2023-06-04T04:44:28;96886.31;;;12.83;65.32
79242;BME280;68670;48.720;9.118;2023-06-04T04:46:54;96884.19;;;12.90;62.65
79242;BME280;68670;48.720;9.118;2023-06-04T04:49:19;96885.28;;;12.89;58.62
79242;BME280;68670;48.720;9.118;2023-06-04T04:51:46;96887.25;;;12.93;63.12
79242;BME280;68670;48.720;9.118;2023-06-04T04:54:14;96889.22;;;12.98;57.93
79242;BME280;68670;48.720;9.118;2023-06-04T04:56:39;96893.16;;;13.07;57.67
79242;BME280;68670;48.720;9.118;2023-06-04T04:59:07;96893.31;;;13.17;57.43
79242;BME280;68670;48.720;9.118;2023-06-04T05:01:34;96890.47;;;13.12;56.48
79242;BME280;68670;48.720;9.118;2023-06-04T05:04:00;96896.06;;;13.17;58.10
79242;BME280;68670;48.720;9.118;2023-06-04T05:06:25;96896.41;;;13.26;56.57
79242;BME280;68670;48.720;9.118;2023-06-04T05:08:50;96905.50;;;13.26;59.28
79242;BME280;68670;48.720;9.118;2023-06-04T05:11:16;96900.78;;;13.22;60.31
79242;BME280;68670;48.720;9.118;2023-06-04T05:13:43;96909.41;;;13.30;56.41
79242;BME280;68670;48.720;9.118;2023-06-04T05:16:08;96907.75;;;13.29;56.89
79242;BME280;68670;48.720;9.118;2023-06-04T05:18:39;96907.19;;;13.32;55.99
79242;BME280;68670;48.720;9.118;2023-06-04T05:21:10;96906.09;;;13.33;55.74
79242;BME280;68670;48.720;9.118;2023-06-04T05:23:38;96916.06;;;13.39;55.73
79242;BME280;68670;48.720;9.118;2023-06-04T05:26:07;96913.94;;;13.47;54.81
79242;BME280;68670;48.720;9.118;2023-06-04T05:28:32;96917.38;;;13.59;53.85
79242;BME280;68670;48.720;9.118;2023-06-04T05:30:58;96921.78;;;13.65;54.58
79242;BME280;68670;48.720;9.118;2023-06-04T05:33:30;96920.75;;;13.71;52.92
79242;BME280;68670;48.720;9.118;2023-06-04T05:35:55;96912.53;;;13.76;54.09
79242;BME280;68670;48.720;9.118;2023-06-04T05:38:23;96920.38;;;13.89;53.95
79242;BME280;68670;48.720;9.118;2023-06-04T05:40:53;96917.34;;;13.91;52.51
79242;BME280;68670;48.720;9.118;2023-06-04T05:43:20;96919.91;;;14.02;55.11
79242;BME280;68670;48.720;9.118;2023-06-04T05:45:45;96921.06;;;14.11;54.04
79242;BME280;68670;48.720;9.118;2023-06-04T05:48:11;96918.66;;;14.20;52.50
79242;BME280;68670;48.720;9.118;2023-06-04T05:50:36;96925.63;;;14.33;52.75
79242;BME280;68670;48.720;9.118;2023-06-04T05:53:04;96914.31;;;14.34;51.30
79242;BME280;68670;48.720;9.118;2023-06-04T05:55:29;96929.19;;;14.33;52.44
79242;BME280;68670;48.720;9.118;2023-06-04T05:57:57;96929.50;;;14.37;51.18
79242;BME280;68670;48.720;9.118;2023-06-04T06:00:22;96933.97;;;14.43;53.62
79242;BME280;68670;48.720;9.118;2023-06-04T06:02:51;96932.06;;;14.43;54.29
79242;BME280;68670;48.720;9.118;2023-06-04T06:05:18;96937.38;;;14.55;55.02
79242;BME280;68670;48.720;9.118;2023-06-04T06:07:44;96937.94;;;14.62;54.96
79242;BME280;68670;48.720;9.118;2023-06-04T06:10:10;96935.81;;;14.74;52.91
79242;BME280;68670;48.720;9.118;2023-06-04T06:12:35;96941.38;;;14.85;53.54
79242;BME280;68670;48.720;9.118;2023-06-04T06:15:00;96938.94;;;14.93;54.61
79242;BME280;68670;48.720;9.118;2023-06-04T06:17:26;96928.44;;;15.00;52.87
79242;BME280;68670;48.720;9.118;2023-06-04T06:19:52;96943.38;;;15.09;51.92
79242;BME280;68670;48.720;9.118;2023-06-04T06:22:17;96942.59;;;15.19;51.15
79242;BME280;68670;48.720;9.118;2023-06-04T06:24:43;96945.38;;;15.24;50.19
79242;BME280;68670;48.720;9.118;2023-06-04T06:27:09;96943.44;;;15.30;51.64
79242;BME280;68670;48.720;9.118;2023-06-04T06:29:35;96949.81;;;15.35;49.88
79242;BME280;68670;48.720;9.118;2023-06-04T06:32:00;96946.50;;;15.38;50.05
79242;BME280;68670;48.720;9.118;2023-06-04T06:34:26;96953.16;;;15.42;50.14
79242;BME280;68670;48.720;9.118;2023-06-04T06:36:51;96945.97;;;15.41;49.45
79242;BME280;68670;48.720;9.118;2023-06-04T06:39:16;96955.34;;;15.40;49.01
79242;BME280;68670;48.720;9.118;2023-06-04T06:41:42;96952.59;;;15.45;48.02
79242;BME280;68670;48.720;9.118;2023-06-04T06:44:10;96958.97;;;15.51;49.44
79242;BME280;68670;48.720;9.118;2023-06-04T06:46:35;96955.94;;;15.53;48.80
79242;BME280;68670;48.720;9.118;2023-06-04T06:49:00;96960.94;;;15.61;49.31
79242;BME280;68670;48.720;9.118;2023-06-04T06:51:28;96963.16;;;15.69;48.23
79242;BME280;68670;48.720;9.118;2023-06-04T06:53:54;96960.41;;;15.74;51.30
79242;BME280;68670;48.720;9.118;2023-06-04T06:56:21;96960.44;;;15.84;49.53
79242;BME280;68670;48.720;9.118;2023-06-04T06:58:50;96967.63;;;15.90;48.16
79242;BME280;68670;48.720;9.118;2023-06-04T07:01:16;96958.75;;;15.93;47.74
79242;BME280;68670;48.720;9.118;2023-06-04T07:03:41;96965.38;;;15.97;47.66
79242;BME280;68670;48.720;9.118;2023-06-04T07:06:09;96959.88;;;16.07;50.58
79242;BME280;68670;48.720;9.118;2023-06-04T07:08:34;96963.19;;;16.15;48.33
79242;BME280;68670;48.720;9.118;2023-06-04T07:11:02;96965.97;;;16.20;48.28
79242;BME280;68670;48.720;9.118;2023-06-04T07:13:30;96962.06;;;16.26;49.63
79242;BME280;68670;48.720;9.118;2023-06-04T07:16:00;96964.28;;;16.44;51.45
79242;BME280;68670;48.720;9.118;2023-06-04T07:18:28;96971.97;;;16.57;51.03
79242;BME280;68670;48.720;9.118;2023-06-04T07:20:55;96962.31;;;16.65;46.68
79242;BME280;68670;48.720;9.118;2023-06-04T07:23:23;96963.13;;;16.75;47.58
79242;BME280;68670;48.720;9.118;2023-06-04T07:25:48;96963.66;;;16.88;47.24
79242;BME280;68670;48.720;9.118;2023-06-04T07:28:13;96956.69;;;16.90;46.67
79242;BME280;68670;48.720;9.118;2023-06-04T07:30:39;96956.66;;;17.00;46.60
79242;BME280;68670;48.720;9.118;2023-06-04T07:33:04;96962.75;;;17.07;47.78
79242;BME280;68670;48.720;9.118;2023-06-04T07:35:31;96966.59;;;17.17;49.19
79242;BME280;68670;48.720;9.118;2023-06-04T07:37:56;96960.72;;;17.23;47.39
79242;BME280;68670;48.720;9.118;2023-06-04T07:40:24;96952.09;;;17.30;46.78
79242;BME280;68670;48.720;9.118;2023-06-04T07:42:49;96955.91;;;17.44;47.72
79242;BME280;68670;48.720;9.118;2023-06-04T07:45:15;96955.00;;;17.59;47.31
79242;BME280;68670;48.720;9.118;2023-06-04T07:47:41;96962.72;;;17.67;46.33
79242;BME280;68670;48.720;9.118;2023-06-04T07:50:10;96966.53;;;17.81;47.26
79242;BME280;68670;48.720;9.118;2023-06-04T07:52:35;96953.69;;;17.90;47.58
79242;BME280;68670;48.720;9.118;2023-06-04T07:55:02;96948.66;;;17.97;45.84
79242;BME280;68670;48.720;9.118;2023-06-04T07:57:30;96950.31;;;17.98;45.65
79242;BME280;68670;48.720;9.118;2023-06-04T07:59:58;96943.13;;;17.97;45.18
79242;BME280;68670;48.720;9.118;2023-06-04T08:02:24;96952.53;;;17.96;44.43
79242;BME280;68670;48.720;9.118;2023-06-04T08:04:50;96953.16;;;17.88;43.01
79242;BME280;68670;48.720;9.118;2023-06-04T08:07:15;96950.00;;;17.61;43.69
79242;BME280;68670;48.720;9.118;2023-06-04T08:09:41;96949.53;;;17.49;44.59
79242;BME280;68670;48.720;9.118;2023-06-04T08:12:06;96950.13;;;17.40;44.35
79242;BME280;68670;48.720;9.118;2023-06-04T08:14:32;96954.22;;;17.53;45.20
79242;BME280;68670;48.720;9.118;2023-06-04T08:16:57;96947.78;;;17.58;45.66
79242;BME280;68670;48.720;9.118;2023-06-04T08:19:23;96948.31;;;17.70;46.54
79242;BME280;68670;48.720;9.118;2023-06-04T08:21:49;96943.78;;;17.84;45.90
79242;BME280;68670;48.720;9.118;2023-06-04T08:24:14;96944.22;;;17.96;43.87
79242;BME280;68670;48.720;9.118;2023-06-04T08:26:40;96945.66;;;18.23;46.19
79242;BME280;68670;48.720;9.118;2023-06-04T08:29:08;96944.47;;;18.34;43.93
79242;BME280;68670;48.720;9.118;2023-06-04T08:31:33;96947.28;;;18.58;46.34
79242;BME280;68670;48.720;9.118;2023-06-04T08:33:59;96941.06;;;18.71;43.28
79242;BME280;68670;48.720;9.118;2023-06-04T08:36:24;96946.03;;;18.98;45.03
79242;BME280;68670;48.720;9.118;2023-06-04T08:38:50;96933.34;;;19.16;42.77
79242;BME280;68670;48.720;9.118;2023-06-04T08:41:28;96935.91;;;19.50;41.47
79242;BME280;68670;48.720;9.118;2023-06-04T08:43:57;96943.75;;;19.85;43.15
79242;BME280;68670;48.720;9.118;2023-06-04T08:46:27;96939.72;;;19.96;39.97
79242;BME280;68670;48.720;9.118;2023-06-04T08:48:54;96943.56;;;20.33;41.12
79242;BME280;68670;48.720;9.118;2023-06-04T08:51:21;96944.25;;;20.43;39.21
79242;BME280;68670;48.720;9.118;2023-06-04T08:53:47;96936.44;;;20.59;38.89
79242;BME280;68670;48.720;9.118;2023-06-04T08:56:16;96947.63;;;21.00;38.84
79242;BME280;68670;48.720;9.118;2023-06-04T08:58:44;96938.25;;;21.10;37.05
79242;BME280;68670;48.720;9.118;2023-06-04T09:01:12;96948.53;;;20.96;36.79
79242;BME280;68670;48.720;9.118;2023-06-04T09:03:38;96940.06;;;21.14;38.63
79242;BME280;68670;48.720;9.118;2023-06-04T09:06:04;96947.84;;;21.04;37.07
79242;BME280;68670;48.720;9.118;2023-06-04T09:08:35;96950.75;;;21.26;37.96
79242;BME280;68670;48.720;9.118;2023-06-04T09:11:05;96952.56;;;21.44;38.49
79242;BME280;68670;48.720;9.118;2023-06-04T09:13:33;96942.53;;;21.71;36.69
79242;BME280;68670;48.720;9.118;2023-06-04T09:16:00;96942.06;;;21.77;36.69
79242;BME280;68670;48.720;9.118;2023-06-04T09:18:26;96941.75;;;21.79;35.66
79242;BME280;68670;48.720;9.118;2023-06-04T09:21:05;96951.78;;;21.80;37.33
79242;BME280;68670;48.720;9.118;2023-06-04T09:23:51;96954.75;;;21.84;35.40
79242;BME280;68670;48.720;9.118;2023-06-04T09:26:16;96950.72;;;22.03;36.75
79242;BME280;68670;48.720;9.118;2023-06-04T09:28:42;96955.91;;;22.19;35.38
79242;BME280;68670;48.720;9.118;2023-06-04T09:31:15;96961.97;;;21.98;34.95
79242;BME280;68670;48.720;9.118;2023-06-04T09:33:46;96953.09;;;21.96;35.44
79242;BME280;68670;48.720;9.118;2023-06-04T09:36:12;96957.81;;;22.09;35.45
79242;BME280;68670;48.720;9.118;2023-06-04T09:38:38;96952.13;;;22.37;38.65
79242;BME280;68670;48.720;9.118;2023-06-04T09:41:13;96957.81;;;22.54;36.41
79242;BME280;68670;48.720;9.118;2023-06-04T09:43:39;96956.94;;;22.76;35.46
79242;BME280;68670;48.720;9.118;2023-06-04T09:48:38;96945.94;;;22.71;34.64
79242;BME280;68670;48.720;9.118;2023-06-04T09:51:15;96954.97;;;22.76;33.58
79242;BME280;68670;48.720;9.118;2023-06-04T09:53:53;96954.16;;;22.76;35.59
79242;BME280;68670;48.720;9.118;2023-06-04T09:56:18;96947.88;;;22.39;35.21
79242;BME280;68670;48.720;9.118;2023-06-04T09:58:45;96951.25;;;22.81;36.62
79242;BME280;68670;48.720;9.118;2023-06-04T10:01:14;96953.28;;;22.89;34.08
79242;BME280;68670;48.720;9.118;2023-06-04T10:03:42;96946.03;;;23.19;33.65
79242;BME280;68670;48.720;9.118;2023-06-04T10:06:11;96945.41;;;23.96;35.95
79242;BME280;68670;48.720;9.118;2023-06-04T10:08:41;96939.84;;;24.31;34.20
79242;BME280;68670;48.720;9.118;2023-06-04T10:11:08;96943.63;;;24.35;34.78
79242;BME280;68670;48.720;9.118;2023-06-04T10:13:41;96946.22;;;24.49;33.82
79242;BME280;68670;48.720;9.118;2023-06-04T10:16:12;96949.47;;;24.76;34.53
79242;BME280;68670;48.720;9.118;2023-06-04T10:18:38;96947.88;;;24.58;30.28
79242;BME280;68670;48.720;9.118;2023-06-04T10:21:04;96943.34;;;25.00;31.77
79242;BME280;68670;48.720;9.118;2023-06-04T10:23:33;96944.91;;;25.19;30.65
79242;BME280;68670;48.720;9.118;2023-06-04T10:26:00;96939.75;;;25.59;33.36
79242;BME280;68670;48.720;9.118;2023-06-04T10:28:25;96933.47;;;25.91;30.73
79242;BME280;68670;48.720;9.118;2023-06-04T10:30:51;96930.22;;;26.01;29.84
79242;BME280;68670;48.720;9.118;2023-06-04T10:33:20;96919.78;;;25.90;29.74
79242;BME280;68670;48.720;9.118;2023-06-04T10:35:49;96911.91;;;25.83;30.41
79242;BME280;68670;48.720;9.118;2023-06-04T10:38:14;96928.31;;;25.34;28.94
79242;BME280;68670;48.720;9.118;2023-06-04T10:40:41;96935.41;;;25.70;29.84
79242;BME280;68670;48.720;9.118;2023-06-04T10:43:08;96926.41;;;26.06;29.13
79242;BME280;68670;48.720;9.118;2023-06-04T10:45:34;96921.53;;;26.57;28.26
79242;BME280;68670;48.720;9.118;2023-06-04T10:48:04;96919.81;;;26.76;27.46
79242;BME280;68670;48.720;9.118;2023-06-04T10:50:31;96923.78;;;27.21;28.71
79242;BME280;68670;48.720;9.118;2023-06-04T10:52:57;96927.59;;;27.61;27.26
79242;BME280;68670;48.720;9.118;2023-06-04T10:55:28;96923.22;;;27.27;26.15
79242;BME280;68670;48.720;9.118;2023-06-04T10:57:55;96916.66;;;27.23;29.17
79242;BME280;68670;48.720;9.118;2023-06-04T11:00:21;96919.69;;;27.91;29.97
79242;BME280;68670;48.720;9.118;2023-06-04T11:02:54;96924.16;;;27.80;26.83
79242;BME280;68670;48.720;9.118;2023-06-04T11:05:20;96917.00;;;27.83;25.43
79242;BME280;68670;48.720;9.118;2023-06-04T11:07:48;96920.16;;;27.81;26.25
79242;BME280;68670;48.720;9.118;2023-06-04T11:10:15;96920.75;;;27.87;27.15
79242;BME280;68670;48.720;9.118;2023-06-04T11:12:47;96910.97;;;28.49;24.26
79242;BME280;68670;48.720;9.118;2023-06-04T11:15:18;96921.63;;;28.55;24.27
79242;BME280;68670;48.720;9.118;2023-06-04T11:17:53;96918.22;;;28.09;25.32
79242;BME280;68670;48.720;9.118;2023-06-04T11:20:22;96913.63;;;28.85;26.29
79242;BME280;68670;48.720;9.118;2023-06-04T11:22:54;96921.84;;;29.37;25.36
79242;BME280;68670;48.720;9.118;2023-06-04T11:25:21;96914.38;;;29.61;23.64
79242;BME280;68670;48.720;9.118;2023-06-04T11:27:48;96908.75;;;29.45;25.61
79242;BME280;68670;48.720;9.118;2023-06-04T11:30:13;96920.81;;;28.98;23.44
79242;BME280;68670;48.720;9.118;2023-06-04T11:32:39;96911.19;;;29.15;24.09
79242;BME280;68670;48.720;9.118;2023-06-04T11:35:05;96912.19;;;29.38;26.10
79242;BME280;68670;48.720;9.118;2023-06-04T11:37:31;96907.78;;;29.88;24.02
79242;BME280;68670;48.720;9.118;2023-06-04T11:39:58;96906.69;;;29.77;24.94
79242;BME280;68670;48.720;9.118;2023-06-04T11:42:23;96901.00;;;30.08;23.88
79242;BME280;68670;48.720;9.118;2023-06-04T11:44:55;96902.78;;;30.17;23.94
79242;BME280;68670;48.720;9.118;2023-06-04T11:47:26;96900.56;;;30.45;23.23
79242;BME280;68670;48.720;9.118;2023-06-04T11:49:55;96887.97;;;30.23;23.33
79242;BME280;68670;48.720;9.118;2023-06-04T11:52:21;96889.09;;;30.38;24.36
79242;BME280;68670;48.720;9.118;2023-06-04T11:54:47;96906.28;;;29.44;23.34
79242;BME280;68670;48.720;9.118;2023-06-04T11:57:13;96897.25;;;29.38;23.28
79242;BME280;68670;48.720;9.118;2023-06-04T11:59:39;96889.69;;;29.58;22.36
79242;BME280;68670;48.720;9.118;2023-06-04T12:02:07;96897.06;;;28.84;23.26
79242;BME280;68670;48.720;9.118;2023-06-04T12:04:32;96906.00;;;29.01;22.89
79242;BME280;68670;48.720;9.118;2023-06-04T12:06:59;96892.34;;;29.19;22.79
79242;BME280;68670;48.720;9.118;2023-06-04T12:09:34;96891.34;;;29.27;23.74
79242;BME280;68670;48.720;9.118;2023-06-04T12:12:07;96887.25;;;29.91;23.99
79242;BME280;68670;48.720;9.118;2023-06-04T12:14:35;96890.59;;;29.30;22.85
79242;BME280;68670;48.720;9.118;2023-06-04T12:17:07;96893.38;;;29.42;23.61
79242;BME280;68670;48.720;9.118;2023-06-04T12:19:44;96881.59;;;28.50;23.04
79242;BME280;68670;48.720;9.118;2023-06-04T12:22:12;96887.44;;;29.16;22.62
79242;BME280;68670;48.720;9.118;2023-06-04T12:24:56;96892.03;;;29.71;22.43
79242;BME280;68670;48.720;9.118;2023-06-04T12:27:23;96885.84;;;29.82;21.25
79242;BME280;68670;48.720;9.118;2023-06-04T12:29:58;96884.03;;;29.73;21.68
79242;BME280;68670;48.720;9.118;2023-06-04T12:32:26;96873.91;;;30.27;21.01
79242;BME280;68670;48.720;9.118;2023-06-04T12:34:52;96882.47;;;29.76;20.46
79242;BME280;68670;48.720;9.118;2023-06-04T12:37:18;96881.97;;;29.55;23.97
79242;BME280;68670;48.720;9.118;2023-06-04T12:39:45;96892.06;;;29.24;21.64
79242;BME280;68670;48.720;9.118;2023-06-04T12:42:11;96892.22;;;29.63;23.48
79242;BME280;68670;48.720;9.118;2023-06-04T12:44:37;96876.22;;;29.35;20.89
79242;BME280;68670;48.720;9.118;2023-06-04T12:47:06;96892.97;;;28.97;23.80
79242;BME280;68670;48.720;9.118;2023-06-04T12:49:34;96879.31;;;29.62;21.83
79242;BME280;68670;48.720;9.118;2023-06-04T12:51:59;96892.25;;;29.31;21.51
79242;BME280;68670;48.720;9.118;2023-06-04T12:54:27;96886.00;;;29.54;22.57
79242;BME280;68670;48.720;9.118;2023-06-04T12:56:53;96879.41;;;30.00;21.70
79242;BME280;68670;48.720;9.118;2023-06-04T12:59:24;96876.34;;;29.55;19.97
79242;BME280;68670;48.720;9.118;2023-06-04T13:01:50;96863.38;;;30.04;19.87
79242;BME280;68670;48.720;9.118;2023-06-04T13:04:16;96856.91;;;30.42;20.76
79242;BME280;68670;48.720;9.118;2023-06-04T13:06:41;96864.41;;;30.96;22.21